Stainforth, United Kingdom
Current Conditions -  °F | °C
As of 4:50 PM on Friday 28 Nov 2014 (Local Time) from EGCN Reporting Station
Haze Haze  
Wind Chill: 52°   Ceiling: 500
Heat Index: 52°   Visibility: 2.5mi
Dew Point: 50°   Wind: 7mph
Humidity: 94%   Direction: 50°NE
Pressure: 29.77"   Gusts: NA
Location:  53.6°N, 1.03°W
Report Text: EGCN 281650Z 05006KT 4000 BR OVC005 11/10 Q1008
Loading
Personal Weather Stations






























Interactive Weather Map New forecast layout! Learn more

10-Day Weather Forecast

Advertisements
Track Severe Weather on mobile